CYGL

La Grande Rivière Airport

La Grande Rivière, Quebec, Canada
METAR CYGL 172200Z 32010G16KT 15SM SCT030 BKN070 12/05 A2987 RMK SC4AC3 SLP125
Observed Flight Rules
Jul-17 @ 22:00 UTC (55 minutes ago) Visual Flight Rules
Wind Visibility Clouds
320° at 10 knots
 Gusting to 16 knots
15 miles
  • Scattered at 3,000' AGL
  • Broken at 7,000' AGL
Temperatures Readings
Current 12°C / 54°F
Dewpoint 5°C / 41°F
Humidity 63%
Altimeter 29.87" Hg
Pressure 1012.5 hPa
Elevation 195
METAR CYGL 172200Z 32010G16KT 15SM SCT030 BKN070 12/05 A2987 RMK SC4AC3 SLP125
Observed Flight Rules
Jul-17 @ 22:00 UTC
(55 minutes ago)
VFR
Wind Visibility
320° at 10 knots
 Gusting to 16 knots
15 miles
Clouds
  • Scattered at 3,000' AGL
  • Broken at 7,000' AGL
Temperature Dewpoint
12°C / 54°F 5°C / 41°F
Humidity Altimeter Pressure
63% 29.87" Hg 1012.5 hPa